sensor_id;sensor_type;location;lat;lon;timestamp;P1;durP1;ratioP1;P2;durP2;ratioP2
5987;SDS011;3021;51.000;6.980;2023-08-06T00:00:19;7.82;;;3.67;;
5987;SDS011;3021;51.000;6.980;2023-08-06T00:02:44;4.93;;;3.85;;
5987;SDS011;3021;51.000;6.980;2023-08-06T00:05:09;5.80;;;3.80;;
5987;SDS011;3021;51.000;6.980;2023-08-06T00:07:35;6.57;;;3.75;;
5987;SDS011;3021;51.000;6.980;2023-08-06T00:10:00;4.90;;;3.55;;
5987;SDS011;3021;51.000;6.980;2023-08-06T00:12:25;8.32;;;4.18;;
5987;SDS011;3021;51.000;6.980;2023-08-06T00:14:51;8.95;;;4.07;;
5987;SDS011;3021;51.000;6.980;2023-08-06T00:17:17;10.40;;;4.63;;
5987;SDS011;3021;51.000;6.980;2023-08-06T00:19:43;10.05;;;4.13;;
5987;SDS011;3021;51.000;6.980;2023-08-06T00:22:08;8.27;;;4.07;;
5987;SDS011;3021;51.000;6.980;2023-08-06T00:24:34;5.63;;;3.80;;
5987;SDS011;3021;51.000;6.980;2023-08-06T00:27:00;6.30;;;3.63;;
5987;SDS011;3021;51.000;6.980;2023-08-06T00:29:26;7.70;;;4.03;;
5987;SDS011;3021;51.000;6.980;2023-08-06T00:31:51;5.70;;;4.03;;
5987;SDS011;3021;51.000;6.980;2023-08-06T00:34:16;6.28;;;4.03;;
5987;SDS011;3021;51.000;6.980;2023-08-06T00:36:41;8.15;;;4.32;;
5987;SDS011;3021;51.000;6.980;2023-08-06T00:39:07;7.15;;;3.92;;
5987;SDS011;3021;51.000;6.980;2023-08-06T00:41:32;8.63;;;4.07;;
5987;SDS011;3021;51.000;6.980;2023-08-06T00:43:58;7.57;;;4.47;;
5987;SDS011;3021;51.000;6.980;2023-08-06T00:46:23;9.10;;;4.80;;
5987;SDS011;3021;51.000;6.980;2023-08-06T00:48:49;8.65;;;4.40;;
5987;SDS011;3021;51.000;6.980;2023-08-06T00:51:15;7.28;;;4.38;;
5987;SDS011;3021;51.000;6.980;2023-08-06T00:53:41;8.23;;;4.70;;
5987;SDS011;3021;51.000;6.980;2023-08-06T00:56:07;5.97;;;4.25;;
5987;SDS011;3021;51.000;6.980;2023-08-06T00:58:35;8.05;;;4.47;;
5987;SDS011;3021;51.000;6.980;2023-08-06T01:01:01;7.38;;;4.22;;
5987;SDS011;3021;51.000;6.980;2023-08-06T01:03:27;10.02;;;4.43;;
5987;SDS011;3021;51.000;6.980;2023-08-06T01:05:53;8.50;;;4.50;;
5987;SDS011;3021;51.000;6.980;2023-08-06T01:11:07;9.48;;;4.63;;
5987;SDS011;3021;51.000;6.980;2023-08-06T01:13:54;6.53;;;4.20;;
5987;SDS011;3021;51.000;6.980;2023-08-06T01:16:24;6.95;;;4.82;;
5987;SDS011;3021;51.000;6.980;2023-08-06T01:18:49;7.07;;;4.43;;
5987;SDS011;3021;51.000;6.980;2023-08-06T01:21:15;7.40;;;4.85;;
5987;SDS011;3021;51.000;6.980;2023-08-06T01:23:41;7.00;;;4.07;;
5987;SDS011;3021;51.000;6.980;2023-08-06T01:31:50;6.45;;;4.43;;
5987;SDS011;3021;51.000;6.980;2023-08-06T01:34:18;6.30;;;4.10;;
5987;SDS011;3021;51.000;6.980;2023-08-06T01:36:46;6.18;;;4.53;;
5987;SDS011;3021;51.000;6.980;2023-08-06T01:39:12;7.15;;;4.35;;
5987;SDS011;3021;51.000;6.980;2023-08-06T01:41:38;6.07;;;4.32;;
5987;SDS011;3021;51.000;6.980;2023-08-06T01:44:03;7.82;;;4.65;;
5987;SDS011;3021;51.000;6.980;2023-08-06T01:46:28;6.25;;;4.47;;
5987;SDS011;3021;51.000;6.980;2023-08-06T01:48:54;7.50;;;4.53;;
5987;SDS011;3021;51.000;6.980;2023-08-06T01:51:19;6.15;;;4.60;;
5987;SDS011;3021;51.000;6.980;2023-08-06T01:53:44;7.85;;;4.68;;
5987;SDS011;3021;51.000;6.980;2023-08-06T01:56:10;6.90;;;4.07;;
5987;SDS011;3021;51.000;6.980;2023-08-06T01:58:35;6.35;;;4.40;;
5987;SDS011;3021;51.000;6.980;2023-08-06T02:01:01;6.10;;;4.05;;
5987;SDS011;3021;51.000;6.980;2023-08-06T02:03:26;8.88;;;4.18;;
5987;SDS011;3021;51.000;6.980;2023-08-06T02:05:52;6.88;;;4.53;;
5987;SDS011;3021;51.000;6.980;2023-08-06T02:08:17;7.03;;;4.68;;
5987;SDS011;3021;51.000;6.980;2023-08-06T02:10:42;6.07;;;4.55;;
5987;SDS011;3021;51.000;6.980;2023-08-06T02:13:08;6.07;;;4.50;;
5987;SDS011;3021;51.000;6.980;2023-08-06T02:15:33;5.50;;;4.13;;
5987;SDS011;3021;51.000;6.980;2023-08-06T02:17:58;9.68;;;4.50;;
5987;SDS011;3021;51.000;6.980;2023-08-06T02:20:24;5.05;;;4.18;;
5987;SDS011;3021;51.000;6.980;2023-08-06T02:22:49;5.22;;;4.10;;
5987;SDS011;3021;51.000;6.980;2023-08-06T02:25:14;5.13;;;4.38;;
5987;SDS011;3021;51.000;6.980;2023-08-06T02:27:40;8.23;;;4.65;;
5987;SDS011;3021;51.000;6.980;2023-08-06T02:30:05;7.25;;;4.30;;
5987;SDS011;3021;51.000;6.980;2023-08-06T02:32:31;8.48;;;4.10;;
5987;SDS011;3021;51.000;6.980;2023-08-06T02:34:58;5.15;;;4.10;;
5987;SDS011;3021;51.000;6.980;2023-08-06T02:37:23;11.18;;;4.35;;
5987;SDS011;3021;51.000;6.980;2023-08-06T02:39:48;5.68;;;4.13;;
5987;SDS011;3021;51.000;6.980;2023-08-06T02:42:13;10.00;;;4.40;;
5987;SDS011;3021;51.000;6.980;2023-08-06T02:44:39;5.93;;;4.30;;
5987;SDS011;3021;51.000;6.980;2023-08-06T02:47:04;4.65;;;3.78;;
5987;SDS011;3021;51.000;6.980;2023-08-06T02:49:30;4.63;;;4.00;;
5987;SDS011;3021;51.000;6.980;2023-08-06T02:51:55;4.75;;;3.92;;
5987;SDS011;3021;51.000;6.980;2023-08-06T02:54:21;9.15;;;4.05;;
5987;SDS011;3021;51.000;6.980;2023-08-06T02:56:46;4.63;;;3.75;;
5987;SDS011;3021;51.000;6.980;2023-08-06T02:59:12;6.43;;;4.03;;
5987;SDS011;3021;51.000;6.980;2023-08-06T03:01:38;5.85;;;3.45;;
5987;SDS011;3021;51.000;6.980;2023-08-06T03:04:04;5.88;;;3.15;;
5987;SDS011;3021;51.000;6.980;2023-08-06T03:06:29;6.00;;;3.35;;
5987;SDS011;3021;51.000;6.980;2023-08-06T03:08:54;4.57;;;3.25;;
5987;SDS011;3021;51.000;6.980;2023-08-06T03:11:20;8.45;;;3.40;;
5987;SDS011;3021;51.000;6.980;2023-08-06T03:13:46;9.75;;;3.50;;
5987;SDS011;3021;51.000;6.980;2023-08-06T03:16:12;5.40;;;3.25;;
5987;SDS011;3021;51.000;6.980;2023-08-06T03:18:37;6.78;;;3.40;;
5987;SDS011;3021;51.000;6.980;2023-08-06T03:21:03;7.28;;;3.10;;
5987;SDS011;3021;51.000;6.980;2023-08-06T03:23:28;6.85;;;3.28;;
5987;SDS011;3021;51.000;6.980;2023-08-06T03:25:53;6.13;;;3.60;;
5987;SDS011;3021;51.000;6.980;2023-08-06T03:28:20;8.07;;;3.40;;
5987;SDS011;3021;51.000;6.980;2023-08-06T03:30:45;4.93;;;3.40;;
5987;SDS011;3021;51.000;6.980;2023-08-06T03:33:10;6.97;;;3.45;;
5987;SDS011;3021;51.000;6.980;2023-08-06T03:35:36;12.43;;;3.83;;
5987;SDS011;3021;51.000;6.980;2023-08-06T03:38:01;5.55;;;3.20;;
5987;SDS011;3021;51.000;6.980;2023-08-06T03:40:26;8.57;;;4.13;;
5987;SDS011;3021;51.000;6.980;2023-08-06T03:42:52;5.15;;;3.58;;
5987;SDS011;3021;51.000;6.980;2023-08-06T03:45:17;5.47;;;3.13;;
5987;SDS011;3021;51.000;6.980;2023-08-06T03:47:42;11.20;;;4.03;;
5987;SDS011;3021;51.000;6.980;2023-08-06T03:50:08;4.35;;;3.45;;
5987;SDS011;3021;51.000;6.980;2023-08-06T03:52:33;6.70;;;3.80;;
5987;SDS011;3021;51.000;6.980;2023-08-06T03:54:59;9.00;;;3.85;;
5987;SDS011;3021;51.000;6.980;2023-08-06T03:57:24;7.85;;;3.85;;
5987;SDS011;3021;51.000;6.980;2023-08-06T03:59:49;5.47;;;3.85;;
5987;SDS011;3021;51.000;6.980;2023-08-06T04:02:15;6.13;;;3.78;;
5987;SDS011;3021;51.000;6.980;2023-08-06T04:04:40;8.32;;;4.10;;
5987;SDS011;3021;51.000;6.980;2023-08-06T04:07:05;7.65;;;4.13;;
5987;SDS011;3021;51.000;6.980;2023-08-06T04:09:31;7.20;;;4.35;;
5987;SDS011;3021;51.000;6.980;2023-08-06T04:11:56;9.18;;;4.80;;
5987;SDS011;3021;51.000;6.980;2023-08-06T04:14:23;6.88;;;4.25;;
5987;SDS011;3021;51.000;6.980;2023-08-06T04:16:49;8.40;;;4.28;;
5987;SDS011;3021;51.000;6.980;2023-08-06T04:19:14;7.63;;;4.07;;
5987;SDS011;3021;51.000;6.980;2023-08-06T04:21:39;8.15;;;4.43;;
5987;SDS011;3021;51.000;6.980;2023-08-06T04:24:04;6.93;;;4.65;;
5987;SDS011;3021;51.000;6.980;2023-08-06T04:26:30;7.78;;;4.05;;
5987;SDS011;3021;51.000;6.980;2023-08-06T04:28:55;8.57;;;4.18;;
5987;SDS011;3021;51.000;6.980;2023-08-06T04:31:21;8.70;;;4.07;;
5987;SDS011;3021;51.000;6.980;2023-08-06T04:33:47;7.95;;;3.88;;
5987;SDS011;3021;51.000;6.980;2023-08-06T04:36:12;9.02;;;3.95;;
5987;SDS011;3021;51.000;6.980;2023-08-06T04:38:37;7.75;;;4.00;;
5987;SDS011;3021;51.000;6.980;2023-08-06T04:41:03;8.68;;;4.22;;
5987;SDS011;3021;51.000;6.980;2023-08-06T04:43:29;9.35;;;3.90;;
5987;SDS011;3021;51.000;6.980;2023-08-06T04:45:54;7.53;;;4.05;;
5987;SDS011;3021;51.000;6.980;2023-08-06T04:48:21;10.70;;;4.10;;
5987;SDS011;3021;51.000;6.980;2023-08-06T04:50:47;7.13;;;3.88;;
5987;SDS011;3021;51.000;6.980;2023-08-06T04:53:13;7.20;;;3.65;;
5987;SDS011;3021;51.000;6.980;2023-08-06T04:55:39;10.90;;;3.85;;
5987;SDS011;3021;51.000;6.980;2023-08-06T04:58:04;8.82;;;3.78;;
5987;SDS011;3021;51.000;6.980;2023-08-06T05:00:30;8.95;;;4.38;;
5987;SDS011;3021;51.000;6.980;2023-08-06T05:02:55;9.43;;;3.90;;
5987;SDS011;3021;51.000;6.980;2023-08-06T05:05:20;8.60;;;4.25;;
5987;SDS011;3021;51.000;6.980;2023-08-06T05:07:48;6.70;;;3.72;;
5987;SDS011;3021;51.000;6.980;2023-08-06T05:10:14;5.78;;;4.13;;
5987;SDS011;3021;51.000;6.980;2023-08-06T05:12:40;8.75;;;3.63;;
5987;SDS011;3021;51.000;6.980;2023-08-06T05:15:05;8.07;;;3.60;;
5987;SDS011;3021;51.000;6.980;2023-08-06T05:17:31;7.75;;;3.63;;
5987;SDS011;3021;51.000;6.980;2023-08-06T05:19:56;9.60;;;4.10;;
5987;SDS011;3021;51.000;6.980;2023-08-06T05:22:22;6.85;;;3.47;;
5987;SDS011;3021;51.000;6.980;2023-08-06T05:24:47;6.00;;;3.85;;
5987;SDS011;3021;51.000;6.980;2023-08-06T05:27:13;9.48;;;3.95;;
5987;SDS011;3021;51.000;6.980;2023-08-06T05:29:38;6.88;;;4.18;;
5987;SDS011;3021;51.000;6.980;2023-08-06T05:32:03;6.20;;;3.47;;
5987;SDS011;3021;51.000;6.980;2023-08-06T05:34:29;6.18;;;3.78;;
5987;SDS011;3021;51.000;6.980;2023-08-06T05:36:54;5.65;;;3.60;;
5987;SDS011;3021;51.000;6.980;2023-08-06T05:39:19;5.75;;;3.47;;
5987;SDS011;3021;51.000;6.980;2023-08-06T05:41:45;7.07;;;4.00;;
5987;SDS011;3021;51.000;6.980;2023-08-06T05:44:10;8.18;;;4.00;;
5987;SDS011;3021;51.000;6.980;2023-08-06T05:46:36;6.90;;;3.28;;
5987;SDS011;3021;51.000;6.980;2023-08-06T05:49:01;9.10;;;3.53;;
5987;SDS011;3021;51.000;6.980;2023-08-06T05:51:26;5.47;;;3.10;;
5987;SDS011;3021;51.000;6.980;2023-08-06T05:53:52;6.70;;;3.47;;
5987;SDS011;3021;51.000;6.980;2023-08-06T05:56:17;5.63;;;2.88;;
5987;SDS011;3021;51.000;6.980;2023-08-06T05:58:43;5.75;;;2.95;;
5987;SDS011;3021;51.000;6.980;2023-08-06T06:01:08;8.32;;;3.30;;
5987;SDS011;3021;51.000;6.980;2023-08-06T06:03:33;6.07;;;3.10;;
5987;SDS011;3021;51.000;6.980;2023-08-06T06:06:00;4.38;;;3.05;;
5987;SDS011;3021;51.000;6.980;2023-08-06T06:08:26;4.90;;;2.90;;
5987;SDS011;3021;51.000;6.980;2023-08-06T06:10:51;5.95;;;3.25;;
5987;SDS011;3021;51.000;6.980;2023-08-06T06:13:16;6.00;;;2.90;;
5987;SDS011;3021;51.000;6.980;2023-08-06T06:15:42;5.05;;;3.10;;
5987;SDS011;3021;51.000;6.980;2023-08-06T06:18:07;8.70;;;3.08;;
5987;SDS011;3021;51.000;6.980;2023-08-06T06:20:32;5.78;;;3.13;;
5987;SDS011;3021;51.000;6.980;2023-08-06T06:22:58;8.30;;;3.10;;
5987;SDS011;3021;51.000;6.980;2023-08-06T06:25:24;6.90;;;4.10;;
5987;SDS011;3021;51.000;6.980;2023-08-06T06:27:49;6.75;;;3.70;;
5987;SDS011;3021;51.000;6.980;2023-08-06T06:30:15;5.70;;;3.33;;
5987;SDS011;3021;51.000;6.980;2023-08-06T06:32:40;7.65;;;3.58;;
5987;SDS011;3021;51.000;6.980;2023-08-06T06:35:06;5.32;;;3.63;;
5987;SDS011;3021;51.000;6.980;2023-08-06T06:37:32;6.68;;;3.53;;
5987;SDS011;3021;51.000;6.980;2023-08-06T06:39:57;4.50;;;3.10;;
5987;SDS011;3021;51.000;6.980;2023-08-06T06:42:22;5.40;;;3.60;;
5987;SDS011;3021;51.000;6.980;2023-08-06T06:44:48;5.40;;;3.40;;
5987;SDS011;3021;51.000;6.980;2023-08-06T06:47:13;6.68;;;3.75;;
5987;SDS011;3021;51.000;6.980;2023-08-06T06:49:39;6.95;;;3.95;;
5987;SDS011;3021;51.000;6.980;2023-08-06T06:52:04;6.28;;;3.83;;
5987;SDS011;3021;51.000;6.980;2023-08-06T06:54:30;5.30;;;3.80;;
5987;SDS011;3021;51.000;6.980;2023-08-06T06:56:55;5.38;;;3.35;;
5987;SDS011;3021;51.000;6.980;2023-08-06T06:59:20;6.82;;;3.92;;
5987;SDS011;3021;51.000;6.980;2023-08-06T07:01:46;3.95;;;3.25;;
5987;SDS011;3021;51.000;6.980;2023-08-06T07:04:11;9.23;;;3.63;;
5987;SDS011;3021;51.000;6.980;2023-08-06T07:06:37;6.85;;;3.83;;
5987;SDS011;3021;51.000;6.980;2023-08-06T07:09:02;4.38;;;3.45;;
5987;SDS011;3021;51.000;6.980;2023-08-06T07:11:28;6.18;;;3.25;;
5987;SDS011;3021;51.000;6.980;2023-08-06T07:13:56;4.45;;;3.22;;
5987;SDS011;3021;51.000;6.980;2023-08-06T07:16:25;4.53;;;3.28;;
5987;SDS011;3021;51.000;6.980;2023-08-06T07:18:51;4.60;;;3.67;;
5987;SDS011;3021;51.000;6.980;2023-08-06T07:21:19;8.68;;;3.72;;
5987;SDS011;3021;51.000;6.980;2023-08-06T07:23:45;3.40;;;2.40;;
5987;SDS011;3021;51.000;6.980;2023-08-06T07:26:10;3.22;;;2.05;;
5987;SDS011;3021;51.000;6.980;2023-08-06T07:28:36;3.63;;;1.90;;
5987;SDS011;3021;51.000;6.980;2023-08-06T07:31:02;1.92;;;1.73;;
5987;SDS011;3021;51.000;6.980;2023-08-06T07:33:28;2.45;;;1.80;;
5987;SDS011;3021;51.000;6.980;2023-08-06T07:35:54;2.03;;;1.40;;
5987;SDS011;3021;51.000;6.980;2023-08-06T07:38:19;3.92;;;1.77;;
5987;SDS011;3021;51.000;6.980;2023-08-06T07:40:45;1.30;;;1.13;;
5987;SDS011;3021;51.000;6.980;2023-08-06T07:43:10;1.48;;;1.20;;
5987;SDS011;3021;51.000;6.980;2023-08-06T07:45:35;1.08;;;0.98;;
5987;SDS011;3021;51.000;6.980;2023-08-06T07:48:01;1.00;;;0.90;;
5987;SDS011;3021;51.000;6.980;2023-08-06T07:50:27;1.15;;;0.90;;
5987;SDS011;3021;51.000;6.980;2023-08-06T07:52:52;0.85;;;0.82;;
5987;SDS011;3021;51.000;6.980;2023-08-06T07:55:17;1.15;;;1.05;;
5987;SDS011;3021;51.000;6.980;2023-08-06T07:57:42;1.65;;;1.20;;
5987;SDS011;3021;51.000;6.980;2023-08-06T08:00:08;1.10;;;1.00;;
5987;SDS011;3021;51.000;6.980;2023-08-06T08:02:34;1.60;;;1.20;;
5987;SDS011;3021;51.000;6.980;2023-08-06T08:05:00;2.03;;;1.00;;
5987;SDS011;3021;51.000;6.980;2023-08-06T08:07:25;0.80;;;0.80;;
5987;SDS011;3021;51.000;6.980;2023-08-06T08:09:53;0.90;;;0.90;;
5987;SDS011;3021;51.000;6.980;2023-08-06T08:12:18;1.05;;;0.95;;
5987;SDS011;3021;51.000;6.980;2023-08-06T08:14:44;1.35;;;1.00;;
5987;SDS011;3021;51.000;6.980;2023-08-06T08:17:10;1.10;;;1.00;;
5987;SDS011;3021;51.000;6.980;2023-08-06T08:19:36;1.10;;;1.00;;
5987;SDS011;3021;51.000;6.980;2023-08-06T08:22:02;0.75;;;0.75;;
5987;SDS011;3021;51.000;6.980;2023-08-06T08:24:28;0.80;;;0.75;;
5987;SDS011;3021;51.000;6.980;2023-08-06T08:26:54;0.70;;;0.70;;
5987;SDS011;3021;51.000;6.980;2023-08-06T08:29:20;2.00;;;0.65;;
5987;SDS011;3021;51.000;6.980;2023-08-06T08:31:46;0.68;;;0.68;;
5987;SDS011;3021;51.000;6.980;2023-08-06T08:34:14;1.00;;;0.90;;
5987;SDS011;3021;51.000;6.980;2023-08-06T08:36:39;1.80;;;0.98;;
5987;SDS011;3021;51.000;6.980;2023-08-06T08:39:05;1.02;;;1.02;;
5987;SDS011;3021;51.000;6.980;2023-08-06T08:41:30;1.40;;;1.30;;
5987;SDS011;3021;51.000;6.980;2023-08-06T08:43:58;1.63;;;1.23;;
5987;SDS011;3021;51.000;6.980;2023-08-06T08:46:25;1.67;;;1.55;;
5987;SDS011;3021;51.000;6.980;2023-08-06T08:48:51;1.35;;;1.20;;
5987;SDS011;3021;51.000;6.980;2023-08-06T08:51:18;1.55;;;1.38;;
5987;SDS011;3021;51.000;6.980;2023-08-06T08:53:45;2.28;;;1.50;;
5987;SDS011;3021;51.000;6.980;2023-08-06T08:56:13;1.67;;;1.58;;
5987;SDS011;3021;51.000;6.980;2023-08-06T08:58:39;1.60;;;1.50;;
5987;SDS011;3021;51.000;6.980;2023-08-06T09:01:05;2.72;;;2.20;;
5987;SDS011;3021;51.000;6.980;2023-08-06T09:03:32;3.72;;;2.72;;
5987;SDS011;3021;51.000;6.980;2023-08-06T09:05:59;2.92;;;2.72;;
5987;SDS011;3021;51.000;6.980;2023-08-06T09:08:27;3.88;;;3.47;;
5987;SDS011;3021;51.000;6.980;2023-08-06T09:10:54;3.80;;;3.50;;
5987;SDS011;3021;51.000;6.980;2023-08-06T09:13:21;5.70;;;4.93;;
5987;SDS011;3021;51.000;6.980;2023-08-06T09:15:48;5.43;;;4.60;;
5987;SDS011;3021;51.000;6.980;2023-08-06T09:18:15;4.65;;;4.25;;
5987;SDS011;3021;51.000;6.980;2023-08-06T09:20:50;3.80;;;3.42;;
5987;SDS011;3021;51.000;6.980;2023-08-06T09:23:15;4.45;;;4.05;;
5987;SDS011;3021;51.000;6.980;2023-08-06T09:25:41;4.32;;;3.92;;
5987;SDS011;3021;51.000;6.980;2023-08-06T09:28:06;5.40;;;3.80;;
5987;SDS011;3021;51.000;6.980;2023-08-06T09:30:32;5.13;;;4.43;;
5987;SDS011;3021;51.000;6.980;2023-08-06T09:32:59;6.50;;;5.10;;
5987;SDS011;3021;51.000;6.980;2023-08-06T09:35:25;7.95;;;6.60;;
5987;SDS011;3021;51.000;6.980;2023-08-06T09:37:52;7.18;;;6.47;;
5987;SDS011;3021;51.000;6.980;2023-08-06T09:40:31;7.78;;;6.03;;
5987;SDS011;3021;51.000;6.980;2023-08-06T09:42:57;8.90;;;6.72;;
5987;SDS011;3021;51.000;6.980;2023-08-06T09:45:23;7.90;;;7.07;;
5987;SDS011;3021;51.000;6.980;2023-08-06T09:47:56;9.20;;;7.40;;
5987;SDS011;3021;51.000;6.980;2023-08-06T09:50:22;9.20;;;8.23;;
5987;SDS011;3021;51.000;6.980;2023-08-06T09:52:52;7.93;;;7.13;;
5987;SDS011;3021;51.000;6.980;2023-08-06T09:55:18;7.95;;;6.05;;
5987;SDS011;3021;51.000;6.980;2023-08-06T09:57:44;7.28;;;5.43;;
5987;SDS011;3021;51.000;6.980;2023-08-06T10:00:11;7.57;;;5.50;;
5987;SDS011;3021;51.000;6.980;2023-08-06T10:02:37;6.60;;;5.32;;
5987;SDS011;3021;51.000;6.980;2023-08-06T10:05:04;6.32;;;4.97;;
5987;SDS011;3021;51.000;6.980;2023-08-06T10:07:31;5.28;;;4.30;;
5987;SDS011;3021;51.000;6.980;2023-08-06T10:09:56;6.00;;;4.15;;
5987;SDS011;3021;51.000;6.980;2023-08-06T10:12:23;3.53;;;2.08;;
5987;SDS011;3021;51.000;6.980;2023-08-06T10:14:50;0.90;;;0.90;;
5987;SDS011;3021;51.000;6.980;2023-08-06T10:17:21;1.05;;;0.80;;
5987;SDS011;3021;51.000;6.980;2023-08-06T10:19:48;2.05;;;0.90;;
5987;SDS011;3021;51.000;6.980;2023-08-06T10:22:15;1.73;;;0.88;;
5987;SDS011;3021;51.000;6.980;2023-08-06T10:24:46;1.13;;;0.80;;
5987;SDS011;3021;51.000;6.980;2023-08-06T10:27:21;1.45;;;0.68;;
5987;SDS011;3021;51.000;6.980;2023-08-06T10:29:52;0.60;;;0.60;;
5987;SDS011;3021;51.000;6.980;2023-08-06T10:32:18;0.73;;;0.50;;
5987;SDS011;3021;51.000;6.980;2023-08-06T10:34:53;0.38;;;0.35;;
5987;SDS011;3021;51.000;6.980;2023-08-06T10:37:18;0.55;;;0.50;;
5987;SDS011;3021;51.000;6.980;2023-08-06T10:39:50;1.40;;;0.80;;
5987;SDS011;3021;51.000;6.980;2023-08-06T10:42:26;5.60;;;0.90;;
5987;SDS011;3021;51.000;6.980;2023-08-06T10:45:10;1.58;;;1.02;;
5987;SDS011;3021;51.000;6.980;2023-08-06T10:47:39;1.75;;;1.10;;
5987;SDS011;3021;51.000;6.980;2023-08-06T10:50:06;1.92;;;1.73;;
5987;SDS011;3021;51.000;6.980;2023-08-06T10:52:33;3.25;;;1.60;;
5987;SDS011;3021;51.000;6.980;2023-08-06T10:54:59;2.53;;;1.83;;
5987;SDS011;3021;51.000;6.980;2023-08-06T10:57:25;4.57;;;1.80;;
5987;SDS011;3021;51.000;6.980;2023-08-06T10:59:50;2.58;;;1.80;;
5987;SDS011;3021;51.000;6.980;2023-08-06T11:02:16;2.22;;;1.60;;
5987;SDS011;3021;51.000;6.980;2023-08-06T11:04:41;1.70;;;1.50;;
5987;SDS011;3021;51.000;6.980;2023-08-06T11:07:07;2.72;;;1.90;;
5987;SDS011;3021;51.000;6.980;2023-08-06T11:09:32;3.92;;;2.20;;
5987;SDS011;3021;51.000;6.980;2023-08-06T11:11:57;5.15;;;2.60;;
5987;SDS011;3021;51.000;6.980;2023-08-06T11:14:23;3.28;;;2.13;;
5987;SDS011;3021;51.000;6.980;2023-08-06T11:16:48;4.80;;;2.45;;
5987;SDS011;3021;51.000;6.980;2023-08-06T11:19:15;5.13;;;2.30;;
5987;SDS011;3021;51.000;6.980;2023-08-06T11:21:41;6.03;;;2.88;;
5987;SDS011;3021;51.000;6.980;2023-08-06T11:24:09;11.15;;;3.20;;
5987;SDS011;3021;51.000;6.980;2023-08-06T11:26:36;7.00;;;3.00;;
5987;SDS011;3021;51.000;6.980;2023-08-06T11:29:02;4.53;;;2.95;;
5987;SDS011;3021;51.000;6.980;2023-08-06T11:31:28;5.78;;;3.30;;
5987;SDS011;3021;51.000;6.980;2023-08-06T11:33:54;6.15;;;2.90;;
5987;SDS011;3021;51.000;6.980;2023-08-06T11:36:29;4.57;;;2.83;;
5987;SDS011;3021;51.000;6.980;2023-08-06T11:38:56;4.95;;;3.53;;
5987;SDS011;3021;51.000;6.980;2023-08-06T11:41:22;7.95;;;2.58;;
5987;SDS011;3021;51.000;6.980;2023-08-06T11:43:47;5.05;;;3.17;;
5987;SDS011;3021;51.000;6.980;2023-08-06T11:46:13;10.15;;;3.50;;
5987;SDS011;3021;51.000;6.980;2023-08-06T11:51:36;8.48;;;3.88;;
5987;SDS011;3021;51.000;6.980;2023-08-06T11:54:01;8.10;;;3.30;;
5987;SDS011;3021;51.000;6.980;2023-08-06T11:56:27;5.93;;;3.30;;
5987;SDS011;3021;51.000;6.980;2023-08-06T11:58:54;8.27;;;3.50;;
5987;SDS011;3021;51.000;6.980;2023-08-06T12:01:20;6.63;;;3.70;;
5987;SDS011;3021;51.000;6.980;2023-08-06T12:03:45;10.25;;;3.70;;
5987;SDS011;3021;51.000;6.980;2023-08-06T12:06:11;9.05;;;3.70;;
5987;SDS011;3021;51.000;6.980;2023-08-06T12:08:36;6.60;;;3.10;;
5987;SDS011;3021;51.000;6.980;2023-08-06T12:11:03;8.77;;;3.40;;
5987;SDS011;3021;51.000;6.980;2023-08-06T12:13:28;8.95;;;3.80;;
5987;SDS011;3021;51.000;6.980;2023-08-06T12:15:54;6.88;;;3.50;;
5987;SDS011;3021;51.000;6.980;2023-08-06T12:18:19;9.60;;;3.20;;
5987;SDS011;3021;51.000;6.980;2023-08-06T12:20:45;9.10;;;3.10;;
5987;SDS011;3021;51.000;6.980;2023-08-06T12:23:10;7.50;;;2.75;;
5987;SDS011;3021;51.000;6.980;2023-08-06T12:25:40;8.77;;;3.10;;
5987;SDS011;3021;51.000;6.980;2023-08-06T12:28:05;5.53;;;2.70;;
5987;SDS011;3021;51.000;6.980;2023-08-06T12:30:32;6.32;;;2.97;;
5987;SDS011;3021;51.000;6.980;2023-08-06T12:32:57;6.22;;;2.58;;
5987;SDS011;3021;51.000;6.980;2023-08-06T12:35:22;6.63;;;2.70;;
5987;SDS011;3021;51.000;6.980;2023-08-06T12:37:48;5.85;;;2.10;;
5987;SDS011;3021;51.000;6.980;2023-08-06T12:40:13;9.60;;;2.17;;
5987;SDS011;3021;51.000;6.980;2023-08-06T12:42:39;4.03;;;2.17;;
5987;SDS011;3021;51.000;6.980;2023-08-06T12:45:04;5.88;;;2.15;;
5987;SDS011;3021;51.000;6.980;2023-08-06T12:47:30;6.20;;;2.78;;
5987;SDS011;3021;51.000;6.980;2023-08-06T12:49:55;7.05;;;2.20;;
5987;SDS011;3021;51.000;6.980;2023-08-06T12:52:20;5.47;;;1.90;;
5987;SDS011;3021;51.000;6.980;2023-08-06T12:54:46;4.97;;;2.03;;
5987;SDS011;3021;51.000;6.980;2023-08-06T12:57:11;7.03;;;2.13;;
5987;SDS011;3021;51.000;6.980;2023-08-06T12:59:36;5.55;;;2.33;;
5987;SDS011;3021;51.000;6.980;2023-08-06T13:02:02;6.68;;;2.45;;
5987;SDS011;3021;51.000;6.980;2023-08-06T13:04:27;4.50;;;2.03;;
5987;SDS011;3021;51.000;6.980;2023-08-06T13:06:53;6.28;;;2.25;;
5987;SDS011;3021;51.000;6.980;2023-08-06T13:09:18;5.68;;;2.33;;
5987;SDS011;3021;51.000;6.980;2023-08-06T13:11:44;6.35;;;2.55;;
5987;SDS011;3021;51.000;6.980;2023-08-06T13:14:11;7.25;;;2.40;;
5987;SDS011;3021;51.000;6.980;2023-08-06T13:16:38;5.13;;;2.85;;
5987;SDS011;3021;51.000;6.980;2023-08-06T13:19:05;4.03;;;2.88;;
5987;SDS011;3021;51.000;6.980;2023-08-06T13:24:03;7.90;;;2.65;;
5987;SDS011;3021;51.000;6.980;2023-08-06T13:26:31;5.32;;;2.63;;
5987;SDS011;3021;51.000;6.980;2023-08-06T13:28:57;7.40;;;2.80;;
5987;SDS011;3021;51.000;6.980;2023-08-06T13:31:23;9.85;;;2.95;;
5987;SDS011;3021;51.000;6.980;2023-08-06T13:33:49;5.68;;;2.45;;
5987;SDS011;3021;51.000;6.980;2023-08-06T13:36:18;4.20;;;2.42;;
5987;SDS011;3021;51.000;6.980;2023-08-06T13:38:43;3.67;;;2.33;;
5987;SDS011;3021;51.000;6.980;2023-08-06T13:41:08;5.45;;;2.80;;
5987;SDS011;3021;51.000;6.980;2023-08-06T13:43:34;7.35;;;2.85;;
5987;SDS011;3021;51.000;6.980;2023-08-06T13:45:59;5.32;;;2.72;;
5987;SDS011;3021;51.000;6.980;2023-08-06T13:48:24;6.53;;;2.50;;
5987;SDS011;3021;51.000;6.980;2023-08-06T13:50:49;3.95;;;2.70;;
5987;SDS011;3021;51.000;6.980;2023-08-06T13:53:15;5.57;;;2.65;;
5987;SDS011;3021;51.000;6.980;2023-08-06T13:55:40;6.03;;;3.05;;
5987;SDS011;3021;51.000;6.980;2023-08-06T13:58:06;6.70;;;3.13;;
5987;SDS011;3021;51.000;6.980;2023-08-06T14:00:31;4.75;;;3.03;;
5987;SDS011;3021;51.000;6.980;2023-08-06T14:02:56;5.47;;;3.05;;
5987;SDS011;3021;51.000;6.980;2023-08-06T14:05:21;6.45;;;3.35;;
5987;SDS011;3021;51.000;6.980;2023-08-06T14:07:47;7.30;;;3.40;;
5987;SDS011;3021;51.000;6.980;2023-08-06T14:10:12;5.82;;;3.45;;
5987;SDS011;3021;51.000;6.980;2023-08-06T14:12:38;6.13;;;3.63;;
5987;SDS011;3021;51.000;6.980;2023-08-06T14:15:03;8.20;;;4.03;;
5987;SDS011;3021;51.000;6.980;2023-08-06T14:17:29;9.05;;;4.43;;
5987;SDS011;3021;51.000;6.980;2023-08-06T14:19:54;8.77;;;4.53;;
5987;SDS011;3021;51.000;6.980;2023-08-06T14:22:21;13.68;;;4.63;;
5987;SDS011;3021;51.000;6.980;2023-08-06T14:24:47;7.82;;;4.57;;
5987;SDS011;3021;51.000;6.980;2023-08-06T14:27:12;10.68;;;4.47;;
5987;SDS011;3021;51.000;6.980;2023-08-06T14:29:38;6.88;;;4.07;;
5987;SDS011;3021;51.000;6.980;2023-08-06T14:32:03;6.93;;;3.00;;
5987;SDS011;3021;51.000;6.980;2023-08-06T14:34:29;4.43;;;2.53;;
5987;SDS011;3021;51.000;6.980;2023-08-06T14:36:54;5.60;;;2.28;;
5987;SDS011;3021;51.000;6.980;2023-08-06T14:39:19;5.97;;;2.38;;
5987;SDS011;3021;51.000;6.980;2023-08-06T14:41:45;8.32;;;2.25;;
5987;SDS011;3021;51.000;6.980;2023-08-06T14:44:10;8.38;;;2.20;;
5987;SDS011;3021;51.000;6.980;2023-08-06T14:46:36;4.53;;;2.35;;
5987;SDS011;3021;51.000;6.980;2023-08-06T14:49:02;6.93;;;2.30;;
5987;SDS011;3021;51.000;6.980;2023-08-06T14:51:27;7.90;;;2.53;;
5987;SDS011;3021;51.000;6.980;2023-08-06T14:53:53;5.60;;;2.20;;
5987;SDS011;3021;51.000;6.980;2023-08-06T14:56:18;10.27;;;2.80;;
5987;SDS011;3021;51.000;6.980;2023-08-06T14:58:43;6.80;;;2.70;;
5987;SDS011;3021;51.000;6.980;2023-08-06T15:01:09;8.48;;;2.60;;
5987;SDS011;3021;51.000;6.980;2023-08-06T15:03:34;7.65;;;2.63;;
5987;SDS011;3021;51.000;6.980;2023-08-06T15:05:59;7.68;;;2.50;;
5987;SDS011;3021;51.000;6.980;2023-08-06T15:08:25;6.85;;;3.15;;
5987;SDS011;3021;51.000;6.980;2023-08-06T15:10:50;7.57;;;2.28;;
5987;SDS011;3021;51.000;6.980;2023-08-06T15:13:17;10.85;;;2.65;;
5987;SDS011;3021;51.000;6.980;2023-08-06T15:15:43;5.70;;;2.75;;
5987;SDS011;3021;51.000;6.980;2023-08-06T15:18:09;4.57;;;2.10;;
5987;SDS011;3021;51.000;6.980;2023-08-06T15:20:36;7.93;;;2.58;;